TNCA/AUA METAR and TAF weather

Enter ICAO airport designator
Station Type Date Time Source
TNCA METAR 2021/01/16 02:00 UTC NOAA

TNCA 160200Z 09011KT 9999 FEW018 26/22 Q1012 NOSIG


Station Type Date Time Source
TNCA Decoded METAR 2021/01/16 02:00 UTC NOAA

Queen Beatrix Airport, Aruba (TNCA) 12-30N 070-01W 33M
Jan 15, 2021 - 09:00 PM EST / 2021.01.16 0200 UTC
Wind: from the E (090 degrees) at 13 MPH (11 KT):0
Visibility: greater than 7 mile(s):0
Sky conditions: mostly clear
Temperature: 78 F (26 C)
Dew Point: 71 F (22 C)
Relative Humidity: 78%
Pressure (altimeter): 29.88 in. Hg (1012 hPa)
ob: TNCA 160200Z 09011KT 9999 FEW018 26/22 Q1012 NOSIG
cycle: 2

Station Type Date Time Source
TNCA TAF 2021/01/15 18:07 UTC NOAA

TAF TNCA 151715Z 1518/1618 09015KT 9999 FEW025 PROB30
TEMPO 1607/1618 7000 -SHRA BKN015

Example: see airport list